createdAt,value
2016-11-12T00:01:04.598Z,0
2016-11-12T00:02:18.797Z,0
2016-11-12T00:03:31.732Z,0
2016-11-12T00:04:46.688Z,0
2016-11-12T00:06:02.650Z,0
2016-11-12T00:07:18.515Z,0
2016-11-12T00:08:31.573Z,0
2016-11-12T00:09:46.383Z,0
2016-11-12T00:11:02.380Z,0
2016-11-12T00:12:16.826Z,0
2016-11-12T00:13:32.147Z,0
2016-11-12T00:14:46.950Z,0
2016-11-12T00:16:03.293Z,0
2016-11-12T00:17:19.857Z,0
2016-11-12T00:18:34.338Z,0
2016-11-12T00:19:50.333Z,0
2016-11-12T00:21:07.076Z,0
2016-11-12T00:22:23.109Z,0
2016-11-12T00:23:39.670Z,0
2016-11-12T00:24:54.191Z,0
2016-11-12T00:26:10.050Z,0
2016-11-12T00:27:26.389Z,0
2016-11-12T00:28:39.576Z,0
2016-11-12T00:29:54.144Z,0
2016-11-12T00:31:10.465Z,0
2016-11-12T00:32:25.062Z,0
2016-11-12T00:33:38.605Z,0
2016-11-12T00:34:54.458Z,0
2016-11-12T00:36:10.909Z,0
2016-11-12T00:37:26.927Z,0
2016-11-12T00:38:41.668Z,0
2016-11-12T00:39:56.397Z,0
2016-11-12T00:41:10.874Z,0
2016-11-12T00:42:26.844Z,0
2016-11-12T00:43:41.457Z,0
2016-11-12T00:44:57.674Z,0
2016-11-12T00:46:12.270Z,0
2016-11-12T00:47:25.475Z,0
2016-11-12T00:48:42.094Z,0
2016-11-12T00:49:56.865Z,0
2016-11-12T00:51:11.233Z,0
2016-11-12T00:52:27.057Z,0
2016-11-12T00:53:43.795Z,0
2016-11-12T00:54:56.362Z,0
2016-11-12T00:56:12.410Z,0
2016-11-12T00:57:25.151Z,0
2016-11-12T00:58:41.216Z,0
2016-11-12T00:59:57.222Z,0
2016-11-12T01:01:13.070Z,0
2016-11-12T01:02:28.816Z,0
2016-11-12T01:03:44.982Z,0
2016-11-12T01:05:01.893Z,0
2016-11-12T01:06:16.172Z,0
2016-11-12T01:07:32.747Z,0
2016-11-12T01:08:45.968Z,0
2016-11-12T01:10:00.733Z,0
2016-11-12T01:11:14.895Z,0
2016-11-12T01:12:30.916Z,0
2016-11-12T01:13:44.114Z,0
2016-11-12T01:14:59.103Z,0
2016-11-12T01:16:13.514Z,0
2016-11-12T01:17:26.527Z,0
2016-11-12T01:18:39.137Z,0
2016-11-12T01:19:55.358Z,0
2016-11-12T01:21:09.546Z,0
2016-11-12T01:22:24.204Z,0
2016-11-12T01:23:35.906Z,0
2016-11-12T01:24:49.944Z,0
2016-11-12T01:26:04.520Z,0
2016-11-12T01:27:16.170Z,0
2016-11-12T01:28:32.698Z,0
2016-11-12T01:29:49.087Z,0
2016-11-12T01:31:00.827Z,0
2016-11-12T01:32:15.241Z,0
2016-11-12T01:33:31.623Z,0
2016-11-12T01:34:44.402Z,0
2016-11-12T01:35:58.851Z,0
2016-11-12T01:37:13.603Z,0
2016-11-12T01:38:29.279Z,0
2016-11-12T01:39:42.452Z,0
2016-11-12T01:40:57.180Z,0
2016-11-12T01:42:12.492Z,0
2016-11-12T01:43:28.430Z,0
2016-11-12T01:44:42.646Z,0
2016-11-12T01:45:58.457Z,0
2016-11-12T01:47:11.586Z,0
2016-11-12T01:48:26.392Z,0
2016-11-12T01:49:41.197Z,0
2016-11-12T01:50:55.658Z,0
2016-11-12T01:52:11.489Z,0
2016-11-12T01:53:27.527Z,0
2016-11-12T01:54:42.385Z,0
2016-11-12T01:55:56.578Z,0
2016-11-12T01:57:09.887Z,0
2016-11-12T01:58:25.266Z,0
2016-11-12T01:59:40.211Z,0
2016-11-12T02:00:56.222Z,0
2016-11-12T02:02:11.168Z,0
2016-11-12T02:03:26.648Z,0
2016-11-12T02:04:38.138Z,0
2016-11-12T02:05:54.318Z,0
2016-11-12T02:07:09.981Z,0
2016-11-12T02:08:25.904Z,0
2016-11-12T02:09:41.570Z,0
2016-11-12T02:10:56.905Z,0
2016-11-12T02:12:11.351Z,0
2016-11-12T02:13:26.095Z,0
2016-11-12T02:14:39.053Z,0
2016-11-12T02:15:55.153Z,0
2016-11-12T02:17:09.884Z,0
2016-11-12T02:18:22.122Z,0
2016-11-12T02:19:37.648Z,0
2016-11-12T02:20:53.504Z,0
2016-11-12T02:22:08.276Z,0
2016-11-12T02:23:21.570Z,0
2016-11-12T02:24:37.778Z,0
2016-11-12T02:25:54.161Z,0
2016-11-12T02:27:09.597Z,0
2016-11-12T02:28:23.991Z,0
2016-11-12T02:29:38.794Z,0
2016-11-12T02:30:54.677Z,0
2016-11-12T02:32:10.332Z,0
2016-11-12T02:33:23.482Z,0
2016-11-12T02:34:39.194Z,0
2016-11-12T02:35:53.619Z,0
2016-11-12T02:37:08.692Z,0
2016-11-12T02:38:24.791Z,0
2016-11-12T02:39:40.640Z,0
2016-11-12T02:40:56.279Z,0
2016-11-12T02:42:11.958Z,0
2016-11-12T02:43:28.540Z,0
2016-11-12T02:44:44.733Z,0
2016-11-12T02:45:57.749Z,0
2016-11-12T02:47:12.621Z,0
2016-11-12T02:48:27.059Z,0
2016-11-12T02:49:41.667Z,0
2016-11-12T02:50:53.412Z,0
2016-11-12T02:52:09.092Z,0
2016-11-12T02:53:25.557Z,0
2016-11-12T02:54:41.608Z,0
2016-11-12T02:55:56.010Z,0
2016-11-12T02:57:09.088Z,0
2016-11-12T02:58:23.271Z,0
2016-11-12T02:59:38.188Z,0
2016-11-12T03:00:53.280Z,0
2016-11-12T03:02:06.701Z,0
2016-11-12T03:03:22.349Z,0
2016-11-12T03:04:35.482Z,0
2016-11-12T03:05:51.317Z,0
2016-11-12T03:07:06.604Z,0
2016-11-12T03:08:20.853Z,0
2016-11-12T03:09:34.794Z,0
2016-11-12T03:10:48.824Z,0
2016-11-12T03:12:04.486Z,0
2016-11-12T03:13:17.487Z,0
2016-11-12T03:14:33.286Z,0
2016-11-12T03:15:49.099Z,0
2016-11-12T03:17:02.578Z,0
2016-11-12T03:18:18.031Z,0
2016-11-12T03:19:33.876Z,0
2016-11-12T03:20:48.621Z,0
2016-11-12T03:22:04.112Z,0
2016-11-12T03:23:15.816Z,0
2016-11-12T03:24:31.109Z,0
2016-11-12T03:25:42.726Z,0
2016-11-12T03:26:58.447Z,0
2016-11-12T03:28:14.558Z,0
2016-11-12T03:29:28.762Z,0
2016-11-12T03:30:41.874Z,0
2016-11-12T03:31:53.221Z,0
2016-11-12T03:33:05.766Z,0
2016-11-12T03:34:18.964Z,0
2016-11-12T03:35:34.978Z,0
2016-11-12T03:36:50.282Z,0
2016-11-12T03:38:03.341Z,0
2016-11-12T03:39:18.196Z,0
2016-11-12T03:40:34.489Z,0
2016-11-12T03:41:49.363Z,0
2016-11-12T03:43:02.325Z,0
2016-11-12T03:44:13.791Z,0
2016-11-12T03:45:28.525Z,0
2016-11-12T03:46:44.218Z,0
2016-11-12T03:47:56.301Z,0
2016-11-12T03:49:12.552Z,0
2016-11-12T03:50:28.379Z,0
2016-11-12T03:51:42.581Z,0
2016-11-12T03:52:56.778Z,0
2016-11-12T03:54:09.895Z,0
2016-11-12T03:55:23.917Z,0
2016-11-12T03:56:38.466Z,0
2016-11-12T03:57:53.032Z,0
2016-11-12T03:59:07.925Z,0
2016-11-12T04:00:22.132Z,0
2016-11-12T04:01:37.779Z,0
2016-11-12T04:02:53.771Z,0
2016-11-12T04:04:09.779Z,0
2016-11-12T04:05:25.224Z,0
2016-11-12T04:06:41.113Z,0
2016-11-12T04:07:54.385Z,0
2016-11-12T04:09:08.811Z,0
2016-11-12T04:10:22.181Z,0
2016-11-12T04:11:35.396Z,0
2016-11-12T04:12:49.773Z,0
2016-11-12T04:14:02.948Z,0
2016-11-12T04:15:18.619Z,0
2016-11-12T04:16:33.032Z,0
2016-11-12T04:17:48.940Z,0
2016-11-12T04:19:00.208Z,0
2016-11-12T04:20:15.552Z,0
2016-11-12T04:21:28.308Z,0
2016-11-12T04:22:42.711Z,0
2016-11-12T04:23:56.882Z,0
2016-11-12T04:25:10.105Z,0
2016-11-12T04:26:26.389Z,0
2016-11-12T04:27:40.498Z,0
2016-11-12T04:28:53.197Z,0
2016-11-12T04:30:07.088Z,0
2016-11-12T04:31:20.055Z,0
2016-11-12T04:32:32.619Z,0
2016-11-12T04:33:44.095Z,0
2016-11-12T04:34:56.999Z,0
2016-11-12T04:36:11.235Z,0
2016-11-12T04:37:26.000Z,0
2016-11-12T04:38:40.217Z,0
2016-11-12T04:39:55.960Z,0
2016-11-12T04:41:07.298Z,0
2016-11-12T04:42:21.845Z,0
2016-11-12T04:43:36.004Z,0
2016-11-12T04:44:47.673Z,0
2016-11-12T04:46:02.076Z,0
2016-11-12T04:47:17.176Z,0
2016-11-12T04:48:28.849Z,0
2016-11-12T04:49:41.452Z,0
2016-11-12T04:50:53.502Z,0
2016-11-12T04:52:06.797Z,0
2016-11-12T04:53:19.546Z,0
2016-11-12T04:54:35.191Z,0
2016-11-12T04:55:49.436Z,0
2016-11-12T04:57:00.981Z,0
2016-11-12T04:58:13.731Z,0
2016-11-12T04:59:26.606Z,0
2016-11-12T05:00:39.192Z,0
2016-11-12T05:01:54.301Z,0
2016-11-12T05:03:09.388Z,0
2016-11-12T05:04:23.900Z,0
2016-11-12T05:05:37.142Z,0
2016-11-12T05:06:53.445Z,0
2016-11-12T05:08:08.384Z,0
2016-11-12T05:09:22.412Z,0
2016-11-12T05:10:36.812Z,0
2016-11-12T05:11:51.568Z,0
2016-11-12T05:13:06.550Z,0
2016-11-12T05:14:22.391Z,0
2016-11-12T05:15:37.150Z,0
2016-11-12T05:16:50.530Z,0
2016-11-12T05:18:05.302Z,0
2016-11-12T05:19:20.030Z,0
2016-11-12T05:20:34.229Z,0
2016-11-12T05:21:46.975Z,0
2016-11-12T05:23:03.187Z,0
2016-11-12T05:24:17.777Z,0
2016-11-12T05:25:34.139Z,0
2016-11-12T05:26:49.416Z,0
2016-11-12T05:28:05.064Z,0
2016-11-12T05:29:19.254Z,0
2016-11-12T05:30:33.660Z,0
2016-11-12T05:31:48.245Z,0
2016-11-12T05:33:04.097Z,0
2016-11-12T05:34:15.793Z,0
2016-11-12T05:35:31.316Z,0
2016-11-12T05:36:44.329Z,0
2016-11-12T05:37:57.872Z,0
2016-11-12T05:39:13.973Z,0
2016-11-12T05:40:27.037Z,0
2016-11-12T05:41:43.290Z,0
2016-11-12T05:42:58.942Z,0
2016-11-12T05:44:13.700Z,0
2016-11-12T05:45:28.336Z,0
2016-11-12T05:46:43.075Z,0
2016-11-12T05:47:56.191Z,0
2016-11-12T05:49:10.356Z,0
2016-11-12T05:50:22.194Z,0
2016-11-12T05:51:36.756Z,0
2016-11-12T05:52:51.224Z,0
2016-11-12T05:54:06.056Z,0
2016-11-12T05:55:20.522Z,0
2016-11-12T05:56:32.623Z,0
2016-11-12T05:57:47.210Z,0
2016-11-12T05:59:02.931Z,0
2016-11-12T06:00:16.439Z,0
2016-11-12T06:01:29.257Z,0
2016-11-12T06:02:42.536Z,0
2016-11-12T06:03:56.007Z,0
2016-11-12T06:05:07.651Z,0
2016-11-12T06:06:21.852Z,0
2016-11-12T06:07:37.528Z,4
2016-11-12T06:08:51.968Z,0
2016-11-12T06:10:03.665Z,4
2016-11-12T06:11:18.287Z,4
2016-11-12T06:12:34.563Z,4
2016-11-12T06:13:50.933Z,4
2016-11-12T06:15:02.827Z,4
2016-11-12T06:16:18.750Z,8
2016-11-12T06:17:33.673Z,12
2016-11-12T06:18:47.834Z,12
2016-11-12T06:20:02.001Z,16
2016-11-12T06:21:16.249Z,20
2016-11-12T06:22:30.582Z,24
2016-11-12T06:23:45.454Z,32
2016-11-12T06:25:01.448Z,36
2016-11-12T06:26:15.944Z,48
2016-11-12T06:27:32.003Z,56
2016-11-12T06:28:46.373Z,68
2016-11-12T06:29:59.378Z,80
2016-11-12T06:31:15.431Z,96
2016-11-12T06:32:30.672Z,116
2016-11-12T06:33:45.221Z,136
2016-11-12T06:35:01.008Z,160
2016-11-12T06:36:13.952Z,188
2016-11-12T06:37:27.981Z,220
2016-11-12T06:38:44.181Z,252
2016-11-12T06:39:59.589Z,288
2016-11-12T06:41:14.545Z,328
2016-11-12T06:42:30.228Z,372
2016-11-12T06:43:45.946Z,424
2016-11-12T06:45:02.164Z,480
2016-11-12T06:46:14.893Z,548
2016-11-12T06:47:29.451Z,620
2016-11-12T06:48:42.431Z,692
2016-11-12T06:49:57.568Z,776
2016-11-12T06:51:10.643Z,864
2016-11-12T06:52:23.696Z,960
2016-11-12T06:53:38.796Z,1064
2016-11-12T06:54:55.022Z,1176
2016-11-12T06:56:10.890Z,1292
2016-11-12T06:57:26.597Z,1400
2016-11-12T06:58:39.556Z,1500
2016-11-12T06:59:55.229Z,1600
2016-11-12T07:01:09.398Z,1696
2016-11-12T07:02:25.341Z,1788
2016-11-12T07:03:38.268Z,1872
2016-11-12T07:04:52.714Z,1956
2016-11-12T07:06:08.531Z,2060
2016-11-12T07:07:24.234Z,2168
2016-11-12T07:08:38.675Z,2280
2016-11-12T07:09:51.992Z,2388
2016-11-12T07:11:05.265Z,2504
2016-11-12T07:12:19.810Z,2620
2016-11-12T07:13:32.917Z,2740
2016-11-12T07:14:47.159Z,2860
2016-11-12T07:16:00.145Z,2984
2016-11-12T07:17:15.468Z,3104
2016-11-12T07:18:28.654Z,3196
2016-11-12T07:19:43.331Z,3264
2016-11-12T07:20:56.499Z,3312
2016-11-12T07:22:11.977Z,3388
2016-11-12T07:23:26.170Z,3508
2016-11-12T07:24:42.089Z,3724
2016-11-12T07:25:56.627Z,4052
2016-11-12T07:27:08.348Z,4460
2016-11-12T07:28:22.818Z,4732
2016-11-12T07:29:38.635Z,4908
2016-11-12T07:30:52.823Z,5020
2016-11-12T07:32:08.264Z,5216
2016-11-12T07:33:24.465Z,5328
2016-11-12T07:34:38.622Z,5344
2016-11-12T07:35:51.440Z,5324
2016-11-12T07:37:05.681Z,5388
2016-11-12T07:38:19.708Z,5556
2016-11-12T07:39:34.132Z,5808
2016-11-12T07:40:49.878Z,5968
2016-11-12T07:42:03.701Z,5960
2016-11-12T07:43:16.499Z,6364
2016-11-12T07:44:31.235Z,6556
2016-11-12T07:45:46.331Z,6744
2016-11-12T07:46:59.533Z,7020
2016-11-12T07:48:15.234Z,7020
2016-11-12T07:49:30.168Z,7048
2016-11-12T07:50:44.931Z,7196
2016-11-12T07:51:57.708Z,7752
2016-11-12T07:53:11.941Z,7712
2016-11-12T07:54:26.447Z,7156
2016-11-12T07:55:41.051Z,7720
2016-11-12T07:56:55.666Z,7156
2016-11-12T07:58:09.066Z,5888
2016-11-12T07:59:22.032Z,6388
2016-11-12T08:00:37.954Z,6600
2016-11-12T08:01:52.366Z,6996
2016-11-12T08:03:05.532Z,6972
2016-11-12T08:04:21.182Z,7120
2016-11-12T08:05:35.418Z,6764
2016-11-12T08:06:50.144Z,5492
2016-11-12T08:08:06.096Z,5460
2016-11-12T08:09:22.533Z,6524
2016-11-12T08:10:35.728Z,6852
2016-11-12T08:11:51.655Z,6040
2016-11-12T08:13:06.515Z,6256
2016-11-12T08:14:23.294Z,6368
2016-11-12T08:15:39.160Z,7180
2016-11-12T08:16:55.022Z,7760
2016-11-12T08:18:08.292Z,8456
2016-11-12T08:19:21.667Z,9424
2016-11-12T08:20:36.759Z,9092
2016-11-12T08:21:52.795Z,9444
2016-11-12T08:23:08.981Z,10188
2016-11-12T08:24:25.573Z,10396
2016-11-12T08:25:42.001Z,10584
2016-11-12T08:26:54.963Z,10876
2016-11-12T08:28:10.815Z,10992
2016-11-12T08:29:23.813Z,11596
2016-11-12T08:30:38.012Z,11712
2016-11-12T08:31:53.503Z,11708
2016-11-12T08:33:09.739Z,10780
2016-11-12T08:34:25.748Z,11212
2016-11-12T08:35:41.706Z,11488
2016-11-12T08:36:57.162Z,11796
2016-11-12T08:38:11.222Z,11916
2016-11-12T08:39:27.273Z,12224
2016-11-12T08:40:40.622Z,12476
2016-11-12T08:41:55.603Z,12452
2016-11-12T08:43:08.593Z,12672
2016-11-12T08:44:24.307Z,12720
2016-11-12T08:45:40.348Z,12696
2016-11-12T08:46:55.125Z,12704
2016-11-12T08:48:10.784Z,12760
2016-11-12T08:49:26.473Z,14000
2016-11-12T08:50:41.281Z,14432
2016-11-12T08:51:54.551Z,13944
2016-11-12T08:53:08.982Z,13988
2016-11-12T08:54:25.239Z,14400
2016-11-12T08:55:41.362Z,14688
2016-11-12T08:56:57.429Z,14592
2016-11-12T08:58:13.702Z,14624
2016-11-12T08:59:28.121Z,14464
2016-11-12T09:00:43.810Z,14912
2016-11-12T09:01:58.547Z,14156
2016-11-12T09:03:13.435Z,15808
2016-11-12T09:04:29.352Z,16256
2016-11-12T09:05:45.696Z,16256
2016-11-12T09:07:00.090Z,15360
2016-11-12T09:08:15.508Z,15040
2016-11-12T09:09:29.919Z,15232
2016-11-12T09:10:46.314Z,15136
2016-11-12T09:11:59.704Z,15584
2016-11-12T09:13:13.887Z,15424
2016-11-12T09:14:26.843Z,14816
2016-11-12T09:15:40.934Z,14688
2016-11-12T09:16:54.092Z,14404
2016-11-12T09:18:08.359Z,14912
2016-11-12T09:19:22.843Z,15232
2016-11-12T09:20:38.720Z,16352
2016-11-12T09:21:54.223Z,16288
2016-11-12T09:23:10.081Z,16864
2016-11-12T09:24:26.134Z,15648
2016-11-12T09:25:37.476Z,16352
2016-11-12T09:26:52.103Z,17120
2016-11-12T09:28:07.278Z,17888
2016-11-12T09:29:22.934Z,17760
2016-11-12T09:30:39.358Z,17568
2016-11-12T09:31:52.483Z,16704
2016-11-12T09:33:07.252Z,15168
2016-11-12T09:34:22.223Z,15232
2016-11-12T09:35:38.247Z,16928
2016-11-12T09:36:54.326Z,12588
2016-11-12T09:38:07.076Z,17472
2016-11-12T09:39:22.013Z,20480
2016-11-12T09:40:36.591Z,21120
2016-11-12T09:41:53.151Z,17664
2016-11-12T09:43:07.626Z,20864
2016-11-12T09:44:20.905Z,21952
2016-11-12T09:45:34.915Z,23296
2016-11-12T09:46:49.159Z,22752
2016-11-12T09:48:04.767Z,22080
2016-11-12T09:49:18.070Z,19360
2016-11-12T09:50:34.133Z,15904
2016-11-12T09:51:48.622Z,16352
2016-11-12T09:53:03.211Z,12412
2016-11-12T09:54:16.188Z,10140
2016-11-12T09:55:30.671Z,12648
2016-11-12T09:56:46.874Z,14708
2016-11-12T09:58:01.817Z,15552
2016-11-12T09:59:16.440Z,16224
2016-11-12T10:00:29.799Z,16768
2016-11-12T10:01:45.835Z,18176
2016-11-12T10:02:58.776Z,17536
2016-11-12T10:04:15.019Z,15136
2016-11-12T10:05:28.559Z,16800
2016-11-12T10:06:44.642Z,14752
2016-11-12T10:08:00.157Z,20704
2016-11-12T10:09:16.223Z,30656
2016-11-12T10:10:29.598Z,30944
2016-11-12T10:11:45.867Z,34112
2016-11-12T10:13:02.341Z,32896
2016-11-12T10:14:18.951Z,32992
2016-11-12T10:15:32.090Z,33440
2016-11-12T10:16:45.199Z,32928
2016-11-12T10:17:58.157Z,31168
2016-11-12T10:19:14.341Z,31936
2016-11-12T10:20:29.300Z,31936
2016-11-12T10:21:45.137Z,31840
2016-11-12T10:22:59.360Z,33056
2016-11-12T10:24:16.104Z,34816
2016-11-12T10:25:29.454Z,31008
2016-11-12T10:26:44.565Z,31072
2016-11-12T10:27:57.912Z,28320
2016-11-12T10:29:13.778Z,17216
2016-11-12T10:30:28.547Z,23168
2016-11-12T10:31:44.383Z,21120
2016-11-12T10:33:00.432Z,18080
2016-11-12T10:34:13.441Z,12208
2016-11-12T10:35:27.523Z,7352
2016-11-12T10:36:42.351Z,6076
2016-11-12T10:37:59.188Z,5876
2016-11-12T10:39:12.601Z,6008
2016-11-12T10:40:26.815Z,6444
2016-11-12T10:41:40.877Z,6568
2016-11-12T10:42:57.136Z,6336
2016-11-12T10:44:11.505Z,15336
2016-11-12T10:45:27.735Z,16064
2016-11-12T10:46:42.114Z,7664
2016-11-12T10:47:56.560Z,6136
2016-11-12T10:49:11.122Z,5916
2016-11-12T10:50:27.320Z,5836
2016-11-12T10:51:43.361Z,5380
2016-11-12T10:52:57.786Z,5604
2016-11-12T10:54:12.717Z,5744
2016-11-12T10:55:27.858Z,5764
2016-11-12T10:56:43.133Z,5776
2016-11-12T10:57:58.984Z,5812
2016-11-12T10:59:13.582Z,5848
2016-11-12T11:00:26.690Z,5804
2016-11-12T11:01:40.237Z,5836
2016-11-12T11:02:55.119Z,5788
2016-11-12T11:04:10.810Z,5760
2016-11-12T11:05:25.229Z,5656
2016-11-12T11:06:39.276Z,5628
2016-11-12T11:07:53.694Z,5556
2016-11-12T11:09:09.701Z,5504
2016-11-12T11:10:25.752Z,5420
2016-11-12T11:11:40.634Z,4964
2016-11-12T11:12:55.803Z,4472
2016-11-12T11:14:08.764Z,4516
2016-11-12T11:15:22.123Z,5084
2016-11-12T11:16:36.383Z,5120
2016-11-12T11:17:52.414Z,5132
2016-11-12T11:19:07.345Z,5248
2016-11-12T11:20:22.984Z,5180
2016-11-12T11:21:37.155Z,5128
2016-11-12T11:22:52.375Z,5068
2016-11-12T11:24:07.046Z,5060
2016-11-12T11:25:20.360Z,4956
2016-11-12T11:26:34.617Z,4916
2016-11-12T11:27:47.558Z,4880
2016-11-12T11:29:02.232Z,4856
2016-11-12T11:30:18.326Z,4796
2016-11-12T11:31:34.537Z,4740
2016-11-12T11:32:50.756Z,4784
2016-11-12T11:34:05.157Z,4796
2016-11-12T11:35:18.046Z,4748
2016-11-12T11:36:34.764Z,4704
2016-11-12T11:37:51.138Z,4676
2016-11-12T11:39:06.973Z,4540
2016-11-12T11:40:23.039Z,4680
2016-11-12T11:41:36.267Z,4620
2016-11-12T11:42:49.420Z,4572
2016-11-12T11:44:01.140Z,4548
2016-11-12T11:45:17.760Z,4492
2016-11-12T11:46:33.694Z,4460
2016-11-12T11:47:49.771Z,4444
2016-11-12T11:49:04.000Z,4408
2016-11-12T11:50:20.082Z,4384
2016-11-12T11:51:34.384Z,4376
2016-11-12T11:52:49.319Z,4416
2016-11-12T11:54:04.851Z,4412
2016-11-12T11:55:16.935Z,4400
2016-11-12T11:56:31.419Z,4324
2016-11-12T11:57:45.797Z,4304
2016-11-12T11:59:01.126Z,4372
2016-11-12T12:00:16.071Z,4344
2016-11-12T12:01:31.876Z,4336
2016-11-12T12:02:46.799Z,4360
2016-11-12T12:04:00.131Z,4420
2016-11-12T12:05:16.395Z,4448
2016-11-12T12:06:31.050Z,4448
2016-11-12T12:07:47.465Z,4420
2016-11-12T12:09:03.500Z,4364
2016-11-12T12:10:19.151Z,4328
2016-11-12T12:11:32.535Z,4308
2016-11-12T12:12:48.587Z,4292
2016-11-12T12:14:02.116Z,4252
2016-11-12T12:15:15.675Z,4232
2016-11-12T12:16:31.921Z,4196
2016-11-12T12:17:46.506Z,4184
2016-11-12T12:19:02.370Z,4184
2016-11-12T12:20:15.376Z,4156
2016-11-12T12:21:31.909Z,4124
2016-11-12T12:22:47.927Z,4080
2016-11-12T12:24:04.158Z,4012
2016-11-12T12:25:18.575Z,3972
2016-11-12T12:26:32.023Z,3952
2016-11-12T12:27:48.291Z,3936
2016-11-12T12:29:04.347Z,3916
2016-11-12T12:30:19.133Z,3896
2016-11-12T12:31:33.572Z,3836
2016-11-12T12:32:45.146Z,3804
2016-11-12T12:33:59.759Z,3792
2016-11-12T12:35:13.258Z,3780
2016-11-12T12:36:29.345Z,3760
2016-11-12T12:37:45.539Z,3760
2016-11-12T12:38:59.677Z,3748
2016-11-12T12:40:15.358Z,3712
2016-11-12T12:41:29.973Z,3700
2016-11-12T12:42:46.008Z,3668
2016-11-12T12:44:02.227Z,3640
2016-11-12T12:45:16.968Z,3648
2016-11-12T12:46:31.399Z,3608
2016-11-12T12:47:46.148Z,3572
2016-11-12T12:49:02.783Z,3596
2016-11-12T12:50:18.731Z,3552
2016-11-12T12:51:34.607Z,3500
2016-11-12T12:52:47.439Z,3476
2016-11-12T12:54:00.963Z,3524
2016-11-12T12:55:15.694Z,3544
2016-11-12T12:56:30.088Z,3568
2016-11-12T12:57:43.071Z,3612
2016-11-12T12:58:57.488Z,3644
2016-11-12T13:00:13.167Z,3624
2016-11-12T13:01:29.587Z,3252
2016-11-12T13:02:45.962Z,2816
2016-11-12T13:04:00.005Z,2752
2016-11-12T13:05:14.302Z,2732
2016-11-12T13:06:30.319Z,2792
2016-11-12T13:07:46.913Z,2892
2016-11-12T13:09:00.439Z,2968
2016-11-12T13:10:13.518Z,2964
2016-11-12T13:11:29.961Z,2844
2016-11-12T13:12:44.183Z,2812
2016-11-12T13:13:59.852Z,2872
2016-11-12T13:15:15.846Z,2992
2016-11-12T13:16:31.710Z,3192
2016-11-12T13:17:47.722Z,3340
2016-11-12T13:19:00.687Z,3396
2016-11-12T13:20:16.698Z,3208
2016-11-12T13:21:30.181Z,3056
2016-11-12T13:22:46.060Z,3052
2016-11-12T13:24:02.417Z,3000
2016-11-12T13:25:15.550Z,2912
2016-11-12T13:26:28.412Z,2896
2016-11-12T13:27:42.235Z,2880
2016-11-12T13:28:56.824Z,2888
2016-11-12T13:30:12.741Z,3004
2016-11-12T13:31:26.643Z,3076
2016-11-12T13:32:41.403Z,3192
2016-11-12T13:33:55.733Z,3264
2016-11-12T13:35:10.856Z,3232
2016-11-12T13:36:26.149Z,3056
2016-11-12T13:37:42.357Z,2932
2016-11-12T13:38:58.718Z,2828
2016-11-12T13:40:13.637Z,2820
2016-11-12T13:41:28.715Z,2868
2016-11-12T13:42:44.163Z,2976
2016-11-12T13:43:58.722Z,3024
2016-11-12T13:45:14.741Z,3060
2016-11-12T13:46:29.001Z,3052
2016-11-12T13:47:43.222Z,3024
2016-11-12T13:48:57.282Z,3016
2016-11-12T13:50:13.745Z,2996
2016-11-12T13:51:29.988Z,2968
2016-11-12T13:52:44.744Z,2916
2016-11-12T13:53:56.093Z,2892
2016-11-12T13:55:12.405Z,2872
2016-11-12T13:56:28.959Z,2848
2016-11-12T13:57:44.671Z,2844
2016-11-12T13:59:00.179Z,2884
2016-11-12T14:00:15.477Z,2852
2016-11-12T14:01:27.109Z,2856
2016-11-12T14:02:41.379Z,2876
2016-11-12T14:03:57.977Z,2996
2016-11-12T14:05:13.636Z,3104
2016-11-12T14:06:29.400Z,2976
2016-11-12T14:07:45.640Z,2808
2016-11-12T14:08:59.047Z,2744
2016-11-12T14:10:14.910Z,2688
2016-11-12T14:11:29.516Z,2652
2016-11-12T14:12:44.609Z,2624
2016-11-12T14:14:00.816Z,2568
2016-11-12T14:15:12.509Z,2524
2016-11-12T14:16:28.838Z,2464
2016-11-12T14:17:44.027Z,2356
2016-11-12T14:18:56.691Z,2288
2016-11-12T14:20:11.256Z,2180
2016-11-12T14:21:25.287Z,2136
2016-11-12T14:22:40.382Z,2140
2016-11-12T14:23:56.787Z,2132
2016-11-12T14:25:11.874Z,2128
2016-11-12T14:26:28.153Z,2108
2016-11-12T14:27:42.905Z,2080
2016-11-12T14:28:58.046Z,2060
2016-11-12T14:30:14.448Z,2044
2016-11-12T14:31:29.935Z,2040
2016-11-12T14:32:45.090Z,2040
2016-11-12T14:34:01.118Z,2040
2016-11-12T14:35:16.766Z,2016
2016-11-12T14:36:31.499Z,2008
2016-11-12T14:37:47.559Z,2020
2016-11-12T14:39:02.354Z,2064
2016-11-12T14:40:16.808Z,2120
2016-11-12T14:41:30.990Z,2164
2016-11-12T14:42:45.647Z,2172
2016-11-12T14:44:01.315Z,2116
2016-11-12T14:45:16.972Z,2024
2016-11-12T14:46:31.429Z,1960
2016-11-12T14:47:44.391Z,1884
2016-11-12T14:48:59.321Z,1836
2016-11-12T14:50:14.124Z,1804
2016-11-12T14:51:30.005Z,1780
2016-11-12T14:52:43.013Z,1760
2016-11-12T14:53:59.270Z,1708
2016-11-12T14:55:15.177Z,1640
2016-11-12T14:56:30.998Z,1564
2016-11-12T14:57:45.367Z,1492
2016-11-12T14:59:00.373Z,1420
2016-11-12T15:00:16.273Z,1372
2016-11-12T15:01:28.885Z,1332
2016-11-12T15:02:43.218Z,1284
2016-11-12T15:03:57.302Z,1220
2016-11-12T15:05:12.972Z,1148
2016-11-12T15:06:27.022Z,1080
2016-11-12T15:07:42.303Z,1020
2016-11-12T15:08:56.164Z,968
2016-11-12T15:10:10.603Z,904
2016-11-12T15:11:25.092Z,840
2016-11-12T15:12:39.568Z,792
2016-11-12T15:13:52.492Z,744
2016-11-12T15:15:08.189Z,704
2016-11-12T15:16:21.030Z,668
2016-11-12T15:17:35.515Z,640
2016-11-12T15:18:47.194Z,612
2016-11-12T15:20:03.574Z,588
2016-11-12T15:21:18.085Z,568
2016-11-12T15:22:31.365Z,552
2016-11-12T15:23:46.278Z,536
2016-11-12T15:25:01.929Z,516
2016-11-12T15:26:16.878Z,488
2016-11-12T15:27:32.405Z,456
2016-11-12T15:28:47.056Z,420
2016-11-12T15:29:58.752Z,396
2016-11-12T15:31:13.515Z,368
2016-11-12T15:32:26.446Z,340
2016-11-12T15:33:41.731Z,308
2016-11-12T15:34:54.471Z,280
2016-11-12T15:36:08.696Z,256
2016-11-12T15:37:23.493Z,232
2016-11-12T15:38:39.141Z,208
2016-11-12T15:39:53.741Z,192
2016-11-12T15:41:09.979Z,176
2016-11-12T15:42:23.929Z,160
2016-11-12T15:43:39.614Z,144
2016-11-12T15:44:53.775Z,128
2016-11-12T15:46:08.595Z,116
2016-11-12T15:47:23.378Z,100
2016-11-12T15:48:38.393Z,92
2016-11-12T15:49:51.813Z,76
2016-11-12T15:51:07.820Z,68
2016-11-12T15:52:23.543Z,60
2016-11-12T15:53:37.175Z,52
2016-11-12T15:54:53.509Z,44
2016-11-12T15:56:09.229Z,36
2016-11-12T15:57:25.306Z,28
2016-11-12T15:58:40.843Z,24
2016-11-12T15:59:55.224Z,20
2016-11-12T16:01:07.358Z,20
2016-11-12T16:02:23.199Z,12
2016-11-12T16:03:38.996Z,12
2016-11-12T16:04:55.392Z,8
2016-11-12T16:06:11.275Z,8
2016-11-12T16:07:24.994Z,4
2016-11-12T16:08:41.319Z,4
2016-11-12T16:09:57.370Z,4
2016-11-12T16:11:12.501Z,4
2016-11-12T16:12:28.352Z,4
2016-11-12T16:13:42.795Z,0
2016-11-12T16:14:58.467Z,0
2016-11-12T16:16:13.761Z,0
2016-11-12T16:17:29.391Z,0
2016-11-12T16:18:45.788Z,0
2016-11-12T16:20:02.557Z,0
2016-11-12T16:21:17.168Z,0
2016-11-12T16:22:30.655Z,0
2016-11-12T16:23:43.627Z,0
2016-11-12T16:24:58.725Z,0
2016-11-12T16:26:15.313Z,0
2016-11-12T16:27:31.713Z,0
2016-11-12T16:28:47.731Z,0
2016-11-12T16:30:02.094Z,0
2016-11-12T16:31:16.319Z,0
2016-11-12T16:32:31.619Z,0
2016-11-12T16:33:47.114Z,0
2016-11-12T16:35:01.488Z,0
2016-11-12T16:36:17.374Z,0
2016-11-12T16:37:31.634Z,0
2016-11-12T16:38:45.728Z,0
2016-11-12T16:40:00.337Z,0
2016-11-12T16:41:14.446Z,0
2016-11-12T16:42:28.870Z,0
2016-11-12T16:43:44.898Z,0
2016-11-12T16:44:57.794Z,0
2016-11-12T16:46:12.198Z,0
2016-11-12T16:47:26.507Z,0
2016-11-12T16:48:42.208Z,0
2016-11-12T16:49:57.745Z,0
2016-11-12T16:51:12.157Z,0
2016-11-12T16:52:26.541Z,0
2016-11-12T16:53:40.702Z,0
2016-11-12T16:54:53.847Z,0
2016-11-12T16:56:09.886Z,0
2016-11-12T16:57:23.967Z,0
2016-11-12T16:58:37.831Z,0
2016-11-12T16:59:50.734Z,0
2016-11-12T17:01:04.768Z,0
2016-11-12T17:02:21.162Z,0
2016-11-12T17:03:35.744Z,0
2016-11-12T17:04:51.593Z,0
2016-11-12T17:06:07.464Z,0
2016-11-12T17:07:20.441Z,0
2016-11-12T17:08:34.995Z,0
2016-11-12T17:09:51.047Z,0
2016-11-12T17:11:06.721Z,0
2016-11-12T17:12:22.040Z,0
2016-11-12T17:13:34.045Z,0
2016-11-12T17:14:49.769Z,0
2016-11-12T17:16:05.840Z,0
2016-11-12T17:17:22.381Z,0
2016-11-12T17:18:36.794Z,0
2016-11-12T17:19:51.149Z,0